Time;durP1;ratioP1;P1;durP2;ratioP2;P2;SDS_P1;SDS_P2;PMS_P1;PMS_P2;Temp;Humidity;BMP_temperature;BMP_pressure;BME280_temperature;BME280_humidity;BME280_pressure;Samples;Min_cycle;Max_cycle;Signal;HPM_P1;HPM_P2
2022/04/20 00:01:03;;;;;;;3.58;2.85;;;;;;;11.36;46.44;101330.63;5019758;28;20033;-71
2022/04/20 00:03:29;;;;;;;4.95;3.17;;;;;;;11.30;47.46;101336.94;5033775;28;20107;-74
2022/04/20 00:05:54;;;;;;;8.40;3.50;;;;;;;11.28;47.29;101333.63;5035287;28;20037;-70
2022/04/20 00:08:20;;;;;;;5.97;2.90;;;;;;;11.17;46.97;101330.53;5035160;28;20030;-73
2022/04/20 00:10:45;;;;;;;5.45;3.58;;;;;;;11.14;47.17;101336.41;5034811;28;20056;-72
2022/04/20 00:13:11;;;;;;;4.68;3.08;;;;;;;11.12;47.71;101338.47;5034980;28;20037;-74
2022/04/20 00:15:36;;;;;;;8.07;3.05;;;;;;;11.08;47.92;101331.00;5035087;28;20076;-70
2022/04/20 00:18:02;;;;;;;7.68;3.50;;;;;;;11.04;47.80;101327.91;5017026;28;20021;-73
2022/04/20 00:20:29;;;;;;;4.88;2.95;;;;;;;11.00;47.74;101326.66;5015379;28;20389;-75
2022/04/20 00:22:54;;;;;;;5.28;3.17;;;;;;;11.01;47.62;101332.94;5015541;28;20037;-73
2022/04/20 00:25:20;;;;;;;6.07;3.35;;;;;;;10.98;47.18;101337.72;5015018;28;20389;-69
2022/04/20 00:27:45;;;;;;;5.55;3.28;;;;;;;11.01;47.95;101339.16;5015112;28;20036;-69
2022/04/20 00:30:12;;;;;;;7.97;3.28;;;;;;;11.00;47.66;101342.91;5015063;28;20088;-74
2022/04/20 00:32:38;;;;;;;4.13;3.00;;;;;;;11.02;48.10;101345.41;5013028;28;20030;-71
2022/04/20 00:35:08;;;;;;;5.30;3.22;;;;;;;11.01;47.54;101349.19;5016566;28;20073;-72
2022/04/20 00:37:34;;;;;;;4.30;3.17;;;;;;;10.93;47.90;101345.66;5034384;28;20101;-69
2022/04/20 00:40:00;;;;;;;5.57;3.20;;;;;;;10.95;48.09;101340.03;5034412;28;20370;-73
2022/04/20 00:42:26;;;;;;;6.80;3.30;;;;;;;10.86;47.96;101346.75;5034720;28;20032;-71
2022/04/20 00:44:52;;;;;;;4.07;3.15;;;;;;;10.90;47.75;101347.94;5034278;28;20039;-74
2022/04/20 00:47:17;;;;;;;9.98;3.53;;;;;;;10.88;48.46;101350.88;5034186;28;20026;-70
2022/04/20 00:49:46;;;;;;;3.88;3.10;;;;;;;10.84;47.97;101351.53;5034550;28;20034;-70
2022/04/20 00:52:11;;;;;;;5.13;3.30;;;;;;;10.81;48.40;101345.50;5000908;28;20104;-69
2022/04/20 00:54:37;;;;;;;5.40;3.38;;;;;;;10.82;48.30;101347.16;5014700;28;20473;-73
2022/04/20 00:57:03;;;;;;;4.95;3.30;;;;;;;10.79;48.65;101353.03;5014202;28;20620;-73
2022/04/20 00:59:31;;;;;;;4.95;3.28;;;;;;;10.76;48.08;101360.72;4996936;28;20091;-72
2022/04/20 01:01:57;;;;;;;11.10;3.50;;;;;;;10.69;48.88;101352.63;5012036;28;20432;-72
2022/04/20 01:04:22;;;;;;;5.22;3.38;;;;;;;10.67;48.57;101349.28;5012004;28;20517;-74
2022/04/20 01:06:51;;;;;;;8.27;3.40;;;;;;;10.66;48.20;101347.66;5024737;28;20060;-69
2022/04/20 01:09:16;;;;;;;5.28;3.25;;;;;;;10.58;48.86;101346.00;5033774;28;20043;-70
2022/04/20 01:11:42;;;;;;;5.30;3.60;;;;;;;10.56;48.55;101349.97;5034217;28;20033;-70
2022/04/20 01:14:08;;;;;;;6.13;3.33;;;;;;;10.51;49.14;101350.59;5034300;28;20029;-71
2022/04/20 01:16:34;;;;;;;4.05;3.33;;;;;;;10.52;49.20;101356.84;5033839;28;20029;-72
2022/04/20 01:19:00;;;;;;;4.85;3.63;;;;;;;10.48;48.52;101342.06;5033878;28;20093;-71
2022/04/20 01:21:26;;;;;;;4.25;3.63;;;;;;;10.47;49.79;101352.06;5006190;28;20026;-71
2022/04/20 01:23:51;;;;;;;4.57;3.58;;;;;;;10.44;49.32;101347.91;5014117;28;20021;-72
2022/04/20 01:26:16;;;;;;;4.47;3.80;;;;;;;10.46;49.12;101347.69;5013884;28;20044;-70
2022/04/20 01:28:44;;;;;;;5.55;3.55;;;;;;;10.43;48.97;101348.09;5014064;28;20104;-71
2022/04/20 01:31:14;;;;;;;4.97;4.05;;;;;;;10.28;49.84;101357.28;5013780;28;20030;-73
2022/04/20 01:33:40;;;;;;;6.30;3.65;;;;;;;10.24;49.21;101353.31;5013958;28;20081;-71
2022/04/20 01:36:05;;;;;;;8.18;3.75;;;;;;;10.24;49.74;101356.03;5014259;28;20038;-72
2022/04/20 01:38:31;;;;;;;5.85;3.47;;;;;;;10.19;49.82;101352.28;4996163;28;20458;-73
2022/04/20 01:40:56;;;;;;;7.35;4.22;;;;;;;10.15;50.61;101356.47;5013942;28;20037;-68
2022/04/20 01:43:21;;;;;;;7.70;3.75;;;;;;;10.13;50.02;101361.22;5013336;28;20117;-71
2022/04/20 01:45:47;;;;;;;4.97;3.70;;;;;;;10.11;51.01;101356.88;5013396;28;20393;-72
2022/04/20 01:48:12;;;;;;;6.80;4.10;;;;;;;10.05;50.45;101356.88;5013196;28;20038;-70
2022/04/20 01:51:46;;;;;;;4.55;3.65;;;;;;;10.02;50.09;101352.72;5002590;28;20384;-74
2022/04/20 01:53:24;;;;;;;8.35;4.30;;;;;;;10.00;51.12;101349.41;5031110;28;20099;-73
2022/04/20 01:55:49;;;;;;;6.18;3.92;;;;;;;9.96;49.93;101358.94;5033383;28;20033;-72
2022/04/20 01:58:14;;;;;;;5.38;3.90;;;;;;;9.98;50.63;101351.47;5015340;28;20037;-73
2022/04/20 02:00:39;;;;;;;8.35;3.75;;;;;;;9.95;50.50;101351.91;5013157;28;20772;-70
2022/04/20 02:03:05;;;;;;;4.35;3.78;;;;;;;9.93;50.25;101352.13;5032660;28;20033;-72
2022/04/20 02:05:30;;;;;;;7.13;4.00;;;;;;;9.84;50.75;101349.81;5015462;28;20029;-70
2022/04/20 02:07:57;;;;;;;7.13;4.95;;;;;;;9.78;51.60;101347.94;5027814;28;20032;-73
2022/04/20 02:10:22;;;;;;;8.57;4.78;;;;;;;9.82;50.96;101358.13;5013275;28;20042;-72
2022/04/20 02:12:47;;;;;;;5.22;4.32;;;;;;;9.72;51.09;101353.16;5013202;28;20375;-72
2022/04/20 02:15:13;;;;;;;5.68;3.83;;;;;;;9.70;50.66;101351.69;4995288;28;20389;-73
2022/04/20 02:17:38;;;;;;;5.80;4.03;;;;;;;9.68;50.64;101351.88;5013213;28;20120;-74
2022/04/20 02:20:04;;;;;;;6.80;4.20;;;;;;;9.67;50.42;101352.91;5013177;28;20030;-73
2022/04/20 02:22:29;;;;;;;8.80;4.43;;;;;;;9.65;51.14;101354.19;4998563;28;20468;-68
2022/04/20 02:24:54;;;;;;;6.30;4.35;;;;;;;9.58;51.57;101351.47;5032938;28;20026;-71
2022/04/20 02:27:20;;;;;;;8.93;4.30;;;;;;;9.56;50.67;101346.25;5044574;28;20164;-74
2022/04/20 02:29:47;;;;;;;4.63;3.78;;;;;;;9.53;50.49;101349.38;5032716;28;20052;-72
2022/04/20 02:32:12;;;;;;;6.47;4.13;;;;;;;9.49;50.81;101345.41;5041079;28;20111;-75
2022/04/20 02:34:38;;;;;;;5.88;3.88;;;;;;;9.51;50.48;101356.00;5034874;28;20119;-76
2022/04/20 02:37:04;;;;;;;5.95;4.03;;;;;;;9.41;51.12;101345.63;5047081;28;20041;-71
2022/04/20 02:39:30;;;;;;;7.13;4.55;;;;;;;9.37;51.17;101345.19;5040742;28;20569;-74
2022/04/20 02:41:56;;;;;;;7.45;4.00;;;;;;;9.40;51.19;101352.06;5032208;28;20061;-70
2022/04/20 02:44:21;;;;;;;7.63;4.30;;;;;;;9.35;51.66;101355.38;5032059;28;20454;-73
2022/04/20 02:46:47;;;;;;;7.82;4.70;;;;;;;9.37;51.46;101345.19;5014890;28;20037;-70
2022/04/20 02:49:13;;;;;;;7.13;4.10;;;;;;;9.34;51.01;101356.38;5032297;28;20033;-71
2022/04/20 02:51:38;;;;;;;8.75;4.32;;;;;;;9.34;51.53;101361.78;5031879;28;20041;-71
2022/04/20 02:54:03;;;;;;;7.47;4.07;;;;;;;9.36;51.14;101356.19;5032556;28;20029;-73
2022/04/20 02:56:29;;;;;;;9.52;4.22;;;;;;;9.31;51.08;101362.22;5032281;28;20108;-72
2022/04/20 02:58:54;;;;;;;8.45;4.35;;;;;;;9.30;51.40;101355.16;5032401;28;20026;-72
2022/04/20 03:01:19;;;;;;;6.07;4.72;;;;;;;9.27;51.06;101360.97;5029865;28;20036;-71
2022/04/20 03:03:45;;;;;;;8.88;4.40;;;;;;;9.22;51.08;101366.97;5032621;28;20030;-71
2022/04/20 03:06:11;;;;;;;4.90;3.80;;;;;;;9.22;51.30;101358.03;5031954;28;20022;-74
2022/04/20 03:08:36;;;;;;;5.65;4.00;;;;;;;9.17;51.03;101363.22;5013048;28;20488;-68
2022/04/20 03:11:01;;;;;;;5.18;4.22;;;;;;;9.17;50.98;101368.63;5012732;28;20125;-70
2022/04/20 03:13:27;;;;;;;8.20;4.57;;;;;;;9.19;51.02;101370.09;5012318;28;20460;-71
2022/04/20 03:15:52;;;;;;;7.53;4.28;;;;;;;9.18;51.17;101363.00;5012630;28;20034;-71
2022/04/20 03:18:17;;;;;;;5.03;4.28;;;;;;;9.08;51.68;101364.44;5012298;28;20080;-69
2022/04/20 03:20:42;;;;;;;5.05;4.32;;;;;;;9.02;51.84;101358.78;5022906;28;20030;-73
2022/04/20 03:23:08;;;;;;;6.15;4.22;;;;;;;8.94;51.44;101367.09;5032055;28;20072;-71
2022/04/20 03:25:33;;;;;;;6.78;4.43;;;;;;;8.97;51.91;101366.69;5032065;28;20037;-73
2022/04/20 03:27:58;;;;;;;5.53;4.63;;;;;;;8.93;51.45;101365.41;5035251;28;20121;-72
2022/04/20 03:30:24;;;;;;;6.68;4.30;;;;;;;8.92;51.25;101374.53;5035800;28;20441;-70
2022/04/20 03:32:49;;;;;;;7.65;4.38;;;;;;;8.85;52.07;101368.28;5036024;28;20069;-70
2022/04/20 03:35:15;;;;;;;6.47;4.40;;;;;;;8.86;51.76;101380.72;5027087;28;20037;-70
2022/04/20 03:37:41;;;;;;;8.20;4.43;;;;;;;8.81;51.10;101377.81;5016083;28;20037;-74
2022/04/20 03:40:08;;;;;;;5.72;4.10;;;;;;;8.77;51.83;101382.78;5016163;28;20030;-70
2022/04/20 03:42:34;;;;;;;6.90;4.28;;;;;;;8.79;51.80;101382.59;5015515;28;20033;-70
2022/04/20 03:45:00;;;;;;;5.28;4.30;;;;;;;8.77;51.46;101380.09;5015924;28;20029;-71
2022/04/20 03:47:26;;;;;;;6.97;4.28;;;;;;;8.78;51.58;101378.22;5015764;28;20034;-70
2022/04/20 03:49:51;;;;;;;5.72;4.47;;;;;;;8.83;51.76;101379.28;5015881;28;20032;-68
2022/04/20 03:52:17;;;;;;;6.82;4.57;;;;;;;8.76;51.66;101386.50;4998090;28;20070;-71
2022/04/20 03:54:42;;;;;;;11.73;4.65;;;;;;;8.74;52.32;101376.94;5023177;28;20465;-74
2022/04/20 03:57:07;;;;;;;8.20;4.40;;;;;;;8.67;52.38;101377.75;5035268;28;20038;-69
2022/04/20 03:59:37;;;;;;;7.00;4.40;;;;;;;8.68;52.20;101384.81;5035329;28;20468;-72
2022/04/20 04:02:05;;;;;;;8.82;4.88;;;;;;;8.63;52.79;101383.75;5033275;28;20033;-73
2022/04/20 04:04:31;;;;;;;12.68;4.70;;;;;;;8.64;52.93;101388.13;5035231;28;20030;-72
2022/04/20 04:06:56;;;;;;;7.90;4.65;;;;;;;8.64;52.79;101382.72;5035403;28;20029;-73
2022/04/20 04:09:22;;;;;;;6.00;4.38;;;;;;;8.65;52.21;101387.91;5035079;28;20610;-72
2022/04/20 04:11:47;;;;;;;9.82;4.63;;;;;;;8.58;52.08;101389.72;5033608;28;20034;-71
2022/04/20 04:14:13;;;;;;;9.07;4.40;;;;;;;8.58;51.95;101395.13;5035210;28;20104;-70
2022/04/20 04:16:39;;;;;;;6.55;4.80;;;;;;;8.54;52.91;101388.47;5035364;28;20444;-72
2022/04/20 04:19:06;;;;;;;10.13;4.75;;;;;;;8.54;52.56;101401.13;5035131;28;20084;-73
2022/04/20 04:21:32;;;;;;;9.88;5.00;;;;;;;8.51;52.74;101388.84;5035160;28;20452;-71
2022/04/20 04:23:58;;;;;;;5.43;4.43;;;;;;;8.52;52.67;101393.22;5035086;28;20036;-72
2022/04/20 04:26:23;;;;;;;6.55;4.55;;;;;;;8.49;53.04;101396.31;5033947;28;20099;-70
2022/04/20 04:28:48;;;;;;;7.22;4.75;;;;;;;8.54;52.92;101403.81;5035004;28;20117;-73
2022/04/20 04:31:14;;;;;;;7.57;4.78;;;;;;;8.52;52.97;101409.41;5034534;28;20057;-70
2022/04/20 04:33:39;;;;;;;11.38;4.88;;;;;;;8.45;52.43;101405.84;5034862;28;20038;-68
2022/04/20 04:36:05;;;;;;;10.75;5.40;;;;;;;8.47;52.93;101410.00;5034565;28;20025;-73
2022/04/20 04:38:30;;;;;;;12.82;4.85;;;;;;;8.43;52.92;101418.66;5034455;28;20033;-70
2022/04/20 04:40:55;;;;;;;10.68;4.70;;;;;;;8.41;52.81;101421.56;5026888;28;20037;-72
2022/04/20 04:43:21;;;;;;;13.05;4.80;;;;;;;8.43;53.66;101424.06;5014895;28;20038;-71
2022/04/20 04:48:39;;;;;;;6.70;4.78;;;;;;;8.38;53.71;101424.66;5014632;28;20097;-72
2022/04/20 04:51:06;;;;;;;10.68;6.10;;;;;;;8.38;53.48;101431.88;5015099;28;20030;-69
2022/04/20 04:53:32;;;;;;;14.40;5.03;;;;;;;8.30;53.96;101427.47;5014525;28;20033;-74
2022/04/20 04:55:57;;;;;;;14.50;5.65;;;;;;;8.32;53.84;101434.34;5024180;28;20481;-71
2022/04/20 04:58:22;;;;;;;9.98;4.88;;;;;;;8.39;53.17;101434.38;5034182;28;20036;-71
2022/04/20 05:00:48;;;;;;;12.23;4.72;;;;;;;8.40;52.88;101435.22;5032027;28;20711;-74
2022/04/20 05:03:14;;;;;;;12.95;5.20;;;;;;;8.38;53.59;101438.13;5034354;28;20071;-73
2022/04/20 05:05:41;;;;;;;10.13;4.80;;;;;;;8.32;53.52;101438.91;5034235;28;20033;-71
2022/04/20 05:08:06;;;;;;;8.90;5.15;;;;;;;8.29;54.20;101434.75;5034291;28;20461;-73
2022/04/20 05:10:32;;;;;;;11.48;5.07;;;;;;;8.28;54.22;101437.63;5025468;28;20129;-71
2022/04/20 05:12:59;;;;;;;13.00;5.20;;;;;;;8.28;53.67;101440.31;5014146;28;20076;-72
2022/04/20 05:15:25;;;;;;;13.35;5.00;;;;;;;8.23;53.88;101440.91;5014089;28;20040;-72
2022/04/20 05:17:50;;;;;;;13.07;4.90;;;;;;;8.25;54.29;101433.44;5014233;28;20042;-73
2022/04/20 05:20:16;;;;;;;9.85;5.10;;;;;;;8.20;54.06;101427.81;5014097;28;20417;-70
2022/04/20 05:22:42;;;;;;;15.65;6.05;;;;;;;8.22;53.97;101428.44;5014167;28;20030;-73
2022/04/20 05:25:07;;;;;;;15.48;4.97;;;;;;;8.24;53.61;101425.56;5020807;28;20033;-72
2022/04/20 05:27:33;;;;;;;12.48;5.47;;;;;;;8.27;53.65;101434.09;5033649;28;20022;-71
2022/04/20 05:29:59;;;;;;;11.40;5.95;;;;;;;8.29;53.47;101442.81;5033920;28;20037;-75
2022/04/20 05:32:24;;;;;;;10.52;5.03;;;;;;;8.30;54.26;101443.66;5033613;28;20021;-73
2022/04/20 05:34:49;;;;;;;8.23;4.65;;;;;;;8.36;54.09;101444.75;5033777;28;20454;-71
2022/04/20 05:42:42;;;;;;;8.18;5.40;;;;;;;8.39;54.47;101449.75;5013611;28;20053;-72
2022/04/20 05:45:09;;;;;;;6.90;5.00;;;;;;;8.45;54.21;101448.97;4996178;28;20022;-73
2022/04/20 05:47:34;;;;;;;5.50;4.63;;;;;;;8.39;53.70;101450.56;5013452;28;20036;-72
2022/04/20 05:49:59;;;;;;;8.38;4.78;;;;;;;8.50;53.78;101454.66;5013248;28;20037;-74
2022/04/20 05:52:25;;;;;;;11.85;5.00;;;;;;;8.47;54.45;101457.69;5013541;28;20030;-73
2022/04/20 05:54:50;;;;;;;10.25;5.13;;;;;;;8.53;53.82;101459.66;5013929;28;20022;-72
2022/04/20 05:57:15;;;;;;;8.93;5.15;;;;;;;8.56;54.35;101455.69;5025850;28;20072;-72
2022/04/20 05:59:40;;;;;;;7.70;4.70;;;;;;;8.56;53.71;101461.94;5032814;28;20025;-73
2022/04/20 06:02:06;;;;;;;10.48;5.38;;;;;;;8.57;54.26;101451.97;5031233;28;20778;-72
2022/04/20 06:04:31;;;;;;;9.40;5.25;;;;;;;8.60;54.33;101451.59;5032962;28;20025;-71
2022/04/20 06:06:59;;;;;;;11.75;5.43;;;;;;;8.65;54.53;101449.97;5032942;28;20025;-73
2022/04/20 06:09:24;;;;;;;8.13;5.28;;;;;;;8.69;54.04;101439.59;5032762;28;20054;-74
2022/04/20 06:11:52;;;;;;;9.50;5.20;;;;;;;8.73;54.17;101445.47;5022144;28;20048;-72
2022/04/20 06:14:17;;;;;;;8.82;4.85;;;;;;;8.80;53.02;101446.31;5013019;28;20097;-74
2022/04/20 06:16:43;;;;;;;10.02;5.47;;;;;;;8.82;53.56;101450.47;5013066;28;20468;-72
2022/04/20 06:19:08;;;;;;;8.68;5.10;;;;;;;8.90;53.93;101454.88;5013105;28;20048;-72
2022/04/20 06:21:33;;;;;;;8.52;5.15;;;;;;;8.94;53.70;101456.16;5012963;28;20029;-72
2022/04/20 06:24:00;;;;;;;9.20;5.00;;;;;;;8.99;53.78;101458.25;4995528;28;20049;-69
2022/04/20 06:26:25;;;;;;;8.77;4.93;;;;;;;9.07;53.53;101463.47;5021775;28;20437;-68
2022/04/20 06:28:51;;;;;;;7.95;4.80;;;;;;;9.10;53.13;101459.56;5032894;28;20069;-70
2022/04/20 06:31:16;;;;;;;7.13;4.95;;;;;;;9.17;53.65;101463.13;5032754;28;20033;-70
2022/04/20 06:33:41;;;;;;;7.97;5.40;;;;;;;9.15;53.13;101457.06;5032529;28;20042;-70
2022/04/20 06:36:06;;;;;;;8.75;5.05;;;;;;;9.28;53.23;101465.25;5032357;28;20045;-72
2022/04/20 06:38:32;;;;;;;6.18;4.70;;;;;;;9.31;52.85;101461.31;5032149;28;20030;-73
2022/04/20 06:40:58;;;;;;;8.98;4.90;;;;;;;9.37;52.45;101464.03;5032755;28;20481;-70
2022/04/20 06:43:24;;;;;;;10.13;5.30;;;;;;;9.44;53.59;101468.66;4998887;28;20568;-72
2022/04/20 06:45:49;;;;;;;9.95;5.53;;;;;;;9.52;52.25;101465.75;5025159;28;20074;-72
2022/04/20 06:48:15;;;;;;;8.57;5.13;;;;;;;9.61;52.84;101467.22;5013142;28;20065;-72
2022/04/20 06:50:40;;;;;;;7.35;5.13;;;;;;;9.67;52.48;101471.00;5012411;28;20038;-73
2022/04/20 06:58:38;;;;;;;9.88;5.07;;;;;;;9.88;51.71;101464.59;5012620;28;20049;-73
2022/04/20 07:01:05;;;;;;;10.93;4.97;;;;;;;9.95;52.24;101470.88;5011882;28;20049;-75
2022/04/20 07:03:31;;;;;;;12.20;5.20;;;;;;;9.95;51.28;101468.16;5016528;28;20029;-75
2022/04/20 07:05:57;;;;;;;10.82;5.18;;;;;;;9.99;51.44;101466.69;5016820;28;20381;-70
2022/04/20 07:08:23;;;;;;;9.13;5.13;;;;;;;10.09;50.93;101474.41;4999212;28;20026;-71
2022/04/20 07:10:48;;;;;;;11.63;4.65;;;;;;;10.17;50.69;101463.38;5016029;28;20057;-72
2022/04/20 07:13:14;;;;;;;10.07;4.90;;;;;;;10.21;51.19;101466.53;5024651;28;20029;-73
2022/04/20 07:15:39;;;;;;;9.35;4.85;;;;;;;10.27;50.24;101466.50;5017779;28;20065;-72
2022/04/20 07:18:05;;;;;;;7.25;4.60;;;;;;;10.38;50.07;101470.50;5035956;28;20053;-74
2022/04/20 07:20:31;;;;;;;8.15;4.53;;;;;;;10.44;50.42;101464.25;5035839;28;20056;-71
2022/04/20 07:22:56;;;;;;;7.80;4.85;;;;;;;10.50;49.85;101462.56;5036318;28;20098;-70
2022/04/20 07:25:21;;;;;;;6.93;4.82;;;;;;;10.53;49.51;101466.75;5035995;28;20083;-70
2022/04/20 07:27:48;;;;;;;6.85;4.72;;;;;;;10.54;50.53;101457.59;5035937;28;20022;-73
2022/04/20 07:30:14;;;;;;;10.43;4.95;;;;;;;10.59;49.39;101466.72;5036044;28;20056;-71
2022/04/20 07:32:40;;;;;;;8.55;5.10;;;;;;;10.67;50.76;101467.56;5033809;28;20029;-72
2022/04/20 07:35:05;;;;;;;8.00;4.50;;;;;;;10.79;49.87;101466.72;5016391;28;20057;-72
2022/04/20 07:37:31;;;;;;;7.07;4.40;;;;;;;10.86;49.73;101466.69;5016279;28;20065;-74
2022/04/20 07:39:56;;;;;;;12.02;4.80;;;;;;;10.96;49.38;101464.38;5016172;28;20033;-70
2022/04/20 07:42:22;;;;;;;6.72;4.60;;;;;;;11.01;48.42;101471.03;5015925;28;20030;-73
2022/04/20 07:44:47;;;;;;;11.13;4.78;;;;;;;11.02;48.06;101465.41;5016109;28;20033;-73
2022/04/20 07:47:12;;;;;;;11.80;4.88;;;;;;;11.07;47.98;101471.00;5015671;28;20033;-72
2022/04/20 07:52:21;;;;;;;11.02;4.22;;;;;;;11.16;48.95;101472.44;5035767;28;20080;-73
2022/04/20 07:54:46;;;;;;;12.57;4.43;;;;;;;11.23;48.57;101477.00;5035678;28;20069;-73
2022/04/20 07:57:15;;;;;;;6.55;4.25;;;;;;;11.30;47.98;101484.06;5019002;28;20037;-74
2022/04/20 07:59:41;;;;;;;12.40;4.35;;;;;;;11.34;48.13;101481.75;5015454;28;20084;-71
2022/04/20 08:02:07;;;;;;;8.45;4.38;;;;;;;11.47;48.67;101475.44;5013161;28;20436;-74
2022/04/20 08:04:32;;;;;;;7.72;4.28;;;;;;;11.62;47.54;101486.00;4997895;28;20026;-72
2022/04/20 08:06:58;;;;;;;11.68;4.25;;;;;;;11.65;47.05;101477.44;5015751;28;20025;-72
2022/04/20 08:09:24;;;;;;;9.75;4.57;;;;;;;11.77;46.20;101478.41;5015177;28;20050;-71
2022/04/20 08:11:50;;;;;;;9.23;3.92;;;;;;;11.82;45.89;101480.47;5029726;28;20042;-71
2022/04/20 08:14:15;;;;;;;8.48;4.30;;;;;;;11.88;45.87;101480.44;5034913;28;20037;-75
2022/04/20 08:16:42;;;;;;;6.78;4.15;;;;;;;11.95;46.10;101483.13;5035018;28;20037;-74
2022/04/20 08:19:07;;;;;;;8.68;4.60;;;;;;;11.96;45.72;101484.81;5035084;28;20413;-74
2022/04/20 08:21:34;;;;;;;6.32;4.30;;;;;;;12.00;45.51;101490.59;5029652;28;20030;-75
2022/04/20 08:23:59;;;;;;;11.55;4.00;;;;;;;12.09;45.89;101483.88;5015547;28;20041;-73
2022/04/20 08:26:24;;;;;;;8.50;4.57;;;;;;;12.19;45.13;101483.41;5015437;28;20034;-73
2022/04/20 08:28:50;;;;;;;9.93;4.65;;;;;;;12.26;45.62;101484.19;5015161;28;20030;-72
2022/04/20 08:31:15;;;;;;;7.88;4.45;;;;;;;12.30;44.98;101481.84;5015336;28;20025;-72
2022/04/20 08:33:43;;;;;;;7.72;4.53;;;;;;;12.39;46.03;101488.66;4997430;28;20026;-75
2022/04/20 08:36:12;;;;;;;5.43;4.00;;;;;;;12.46;44.46;101485.91;5015181;28;20037;-71
2022/04/20 08:38:38;;;;;;;10.35;4.45;;;;;;;12.46;44.43;101486.72;5022487;28;20383;-70
2022/04/20 08:41:04;;;;;;;8.15;4.35;;;;;;;12.49;44.66;101489.00;5035008;28;20105;-72
2022/04/20 08:43:31;;;;;;;6.85;4.43;;;;;;;12.51;44.73;101481.44;5035001;28;20034;-75
2022/04/20 08:45:59;;;;;;;8.65;4.47;;;;;;;12.49;44.94;101483.56;5014227;28;20057;-75
2022/04/20 08:48:25;;;;;;;10.93;5.50;;;;;;;12.55;44.97;101479.13;5020950;28;20029;-72
2022/04/20 08:50:53;;;;;;;11.80;4.45;;;;;;;12.57;44.55;101482.44;5034406;28;20391;-74
2022/04/20 08:53:20;;;;;;;7.45;4.90;;;;;;;12.62;44.97;101479.06;4991120;28;20105;-75
2022/04/20 08:55:46;;;;;;;8.95;4.80;;;;;;;12.67;43.21;101481.97;5027954;28;20029;-70
2022/04/20 08:58:12;;;;;;;8.68;4.80;;;;;;;12.73;43.78;101475.63;5014223;28;20050;-77
2022/04/20 09:00:37;;;;;;;10.68;5.30;;;;;;;12.81;43.37;101474.50;5011949;28;20060;-74
2022/04/20 09:03:03;;;;;;;8.43;4.53;;;;;;;12.91;43.19;101472.09;4988555;28;20038;-72
2022/04/20 09:05:32;;;;;;;5.63;4.60;;;;;;;12.89;42.75;101468.75;5016426;28;20033;-72
2022/04/20 09:07:58;;;;;;;8.48;4.65;;;;;;;13.02;42.73;101481.38;5015043;28;20473;-74
2022/04/20 09:10:24;;;;;;;11.38;5.07;;;;;;;13.09;42.76;101468.56;5014167;28;20050;-74
2022/04/20 09:13:07;;;;;;;8.45;5.00;;;;;;;13.15;42.50;101467.66;4996635;28;20080;-71
2022/04/20 09:15:35;;;;;;;12.38;5.22;;;;;;;13.21;41.46;101466.75;5014119;28;20022;-70
2022/04/20 09:18:06;;;;;;;8.43;4.95;;;;;;;13.26;42.62;101469.59;5013980;28;20026;-70
2022/04/20 09:20:34;;;;;;;6.18;4.13;;;;;;;13.33;41.48;101474.13;5020322;28;20397;-74
2022/04/20 09:23:10;;;;;;;8.80;4.40;;;;;;;13.39;41.63;101473.22;5015803;28;20452;-71
2022/04/20 09:25:48;;;;;;;6.70;4.47;;;;;;;13.44;41.87;101470.69;5015163;28;20068;-74
2022/04/20 09:28:24;;;;;;;8.52;4.57;;;;;;;13.50;41.84;101469.75;5015668;28;20030;-72
2022/04/20 09:31:03;;;;;;;7.68;4.07;;;;;;;13.52;40.98;101464.91;5015599;28;20025;-72
2022/04/20 09:33:53;;;;;;;8.57;4.57;;;;;;;13.60;41.67;101461.88;5033552;28;20087;-73
2022/04/20 09:36:43;;;;;;;6.07;4.30;;;;;;;13.71;41.54;101454.81;5008838;28;20037;-71
2022/04/20 09:39:09;;;;;;;8.07;3.70;;;;;;;13.82;40.55;101456.75;4995789;28;20115;-72
2022/04/20 09:41:55;;;;;;;12.65;4.45;;;;;;;13.86;40.70;101451.69;5013630;28;20089;-73
2022/04/20 09:44:22;;;;;;;8.25;4.38;;;;;;;13.95;40.79;101447.56;5013660;28;20493;-70
2022/04/20 09:50:00;;;;;;;6.80;3.72;;;;;;;14.07;39.81;101449.47;5013613;28;20566;-70
2022/04/20 09:52:36;;;;;;;6.20;3.75;;;;;;;14.06;39.93;101450.56;5013604;28;20038;-70
2022/04/20 09:55:05;;;;;;;8.38;3.50;;;;;;;14.14;39.70;101453.75;5013664;28;20113;-70
2022/04/20 09:57:31;;;;;;;9.05;3.50;;;;;;;14.22;39.94;101446.31;5013555;28;20034;-70
2022/04/20 09:59:57;;;;;;;3.90;3.35;;;;;;;14.23;39.46;101432.47;5012971;28;20466;-70
2022/04/20 10:02:22;;;;;;;7.05;3.80;;;;;;;14.37;39.65;101449.38;5015463;28;20568;-70
2022/04/20 10:04:48;;;;;;;5.70;3.60;;;;;;;14.42;39.34;101444.09;5027191;28;20112;-67
2022/04/20 10:07:17;;;;;;;9.65;3.05;;;;;;;14.45;39.51;101445.50;5033224;28;20021;-70
2022/04/20 10:09:43;;;;;;;5.78;3.40;;;;;;;14.53;39.98;101431.53;5017715;28;20110;-68
2022/04/20 10:12:16;;;;;;;6.88;4.07;;;;;;;14.58;38.61;101430.81;5013895;28;20033;-70
2022/04/20 10:17:27;;;;;;;7.55;3.50;;;;;;;14.56;38.35;101424.78;5032919;28;20474;-72
2022/04/20 10:19:54;;;;;;;10.60;3.80;;;;;;;14.56;38.55;101428.34;5032876;28;20117;-71
2022/04/20 10:22:21;;;;;;;6.00;3.50;;;;;;;14.53;38.10;101428.81;5033010;28;20041;-71
2022/04/20 10:24:50;;;;;;;5.90;3.08;;;;;;;14.61;38.47;101419.47;5024720;28;20584;-71
2022/04/20 10:27:22;;;;;;;8.10;3.00;;;;;;;14.72;38.60;101426.81;5014101;28;20525;-72
2022/04/20 10:29:58;;;;;;;6.93;3.30;;;;;;;14.78;38.23;101411.41;5012938;28;20374;-73
2022/04/20 10:32:25;;;;;;;11.55;4.13;;;;;;;14.81;37.34;101421.81;5013158;28;20034;-72
2022/04/20 10:34:52;;;;;;;5.63;3.28;;;;;;;14.81;37.70;101409.03;5012982;28;20033;-70
2022/04/20 10:37:25;;;;;;;7.00;3.00;;;;;;;14.83;37.86;101412.34;5012770;28;20030;-70
2022/04/20 10:39:52;;;;;;;5.43;2.90;;;;;;;14.88;37.22;101425.25;5013541;28;20026;-69
2022/04/20 10:42:17;;;;;;;6.32;2.90;;;;;;;14.94;37.27;101415.28;5032376;28;20105;-70
2022/04/20 10:44:55;;;;;;;5.57;3.78;;;;;;;15.02;38.34;101413.03;5032395;28;20057;-73
2022/04/20 10:47:24;;;;;;;4.90;2.97;;;;;;;15.13;37.79;101411.31;5015048;28;20029;-71
2022/04/20 10:50:08;;;;;;;4.78;3.03;;;;;;;15.19;37.87;101407.63;5014710;28;20103;-72
2022/04/20 10:52:38;;;;;;;6.25;3.13;;;;;;;15.24;37.38;101412.34;5032573;28;20104;-73
2022/04/20 10:55:04;;;;;;;5.53;2.88;;;;;;;15.38;38.51;101405.56;5026297;28;20481;-71
2022/04/20 10:57:34;;;;;;;3.35;2.95;;;;;;;15.45;38.07;101401.84;5012572;28;20040;-73
2022/04/20 11:00:17;;;;;;;5.80;2.90;;;;;;;15.50;38.48;101397.28;4995178;28;20033;-72
2022/04/20 11:02:49;;;;;;;4.50;3.30;;;;;;;15.65;38.21;101393.19;5010642;28;20077;-73
2022/04/20 11:05:18;;;;;;;7.53;3.03;;;;;;;15.78;37.37;101384.75;4995267;28;20097;-73
2022/04/20 11:08:05;;;;;;;6.15;2.75;;;;;;;15.82;37.54;101393.25;4994521;28;20088;-73
2022/04/20 11:10:32;;;;;;;7.07;2.80;;;;;;;15.79;36.51;101383.66;5013690;28;20078;-72
2022/04/20 11:19:13;;;;;;;5.38;2.78;;;;;;;16.00;36.20;101376.63;4913816;29;20131;-73
2022/04/20 11:22:00;;;;;;;4.43;2.45;;;;;;;16.15;37.52;101380.69;4913658;29;20115;-71
2022/04/20 11:24:27;;;;;;;6.05;3.20;;;;;;;16.19;36.44;101371.75;4974385;28;20116;-71
2022/04/20 11:26:54;;;;;;;5.35;2.83;;;;;;;16.33;38.00;101366.75;5012540;28;20036;-72
2022/04/20 11:29:24;;;;;;;7.60;3.13;;;;;;;16.40;36.31;101370.13;5012400;28;20066;-71
2022/04/20 11:31:51;;;;;;;4.32;2.92;;;;;;;16.38;36.41;101364.09;4994743;28;20038;-73
2022/04/20 11:34:20;;;;;;;7.53;2.88;;;;;;;16.41;36.28;101366.34;4994794;28;20095;-73
2022/04/20 11:36:48;;;;;;;2.85;2.60;;;;;;;16.40;35.94;101372.88;5012478;28;20037;-73
2022/04/20 11:39:16;;;;;;;5.55;2.80;;;;;;;16.43;35.61;101358.72;5012153;28;20083;-73
2022/04/20 11:41:46;;;;;;;8.90;3.10;;;;;;;16.42;35.49;101357.03;5018881;28;20115;-72
2022/04/20 11:44:21;;;;;;;4.18;3.00;;;;;;;16.43;36.67;101361.44;5031796;28;20439;-72
2022/04/20 11:46:47;;;;;;;7.25;3.15;;;;;;;16.47;36.02;101351.66;5017945;28;20159;-73
2022/04/20 11:49:12;;;;;;;4.22;3.30;;;;;;;16.46;35.72;101341.00;5015493;28;20061;-71
2022/04/20 11:51:43;;;;;;;3.80;3.10;;;;;;;16.58;35.93;101329.94;5016200;28;20068;-70
2022/04/20 11:54:08;;;;;;;5.55;3.15;;;;;;;16.68;36.35;101349.19;5016003;28;20034;-73